Time;durP1;ratioP1;P1;durP2;ratioP2;P2;SDS_P1;SDS_P2;PMS_P1;PMS_P2;Temp;Humidity;BMP_temperature;BMP_pressure;BME280_temperature;BME280_humidity;BME280_pressure;Samples;Min_cycle;Max_cycle;Signal;HPM_P1;HPM_P2
2023/05/30 00:00:45;;;;;;;63.30;43.28;;;;;;;;;;5016281;28;20038;-65
2023/05/30 00:03:11;;;;;;;60.05;40.35;;;;;;;;;;5016248;28;20040;-68
2023/05/30 00:05:38;;;;;;;75.47;47.17;;;;;;;;;;5016268;28;20030;-68
2023/05/30 00:08:06;;;;;;;176.68;130.93;;;;;;;;;;5016256;28;20022;-66
2023/05/30 00:10:33;;;;;;;97.72;72.22;;;;;;;;;;5016160;28;20030;-66
2023/05/30 00:12:59;;;;;;;78.93;60.75;;;;;;;;;;5016022;28;20037;-66
2023/05/30 00:15:27;;;;;;;157.20;106.40;;;;;;;;;;5016197;28;20022;-66
2023/05/30 00:17:53;;;;;;;97.43;69.55;;;;;;;;;;5015745;28;20526;-65
2023/05/30 00:20:22;;;;;;;82.88;61.72;;;;;;;;;;5015918;28;20033;-65
2023/05/30 00:22:49;;;;;;;114.78;81.43;;;;;;;;;;5018335;28;20033;-64
2023/05/30 00:25:20;;;;;;;79.97;58.42;;;;;;;;;;5023736;28;20030;-64
2023/05/30 00:27:47;;;;;;;54.20;39.95;;;;;;;;;;5016001;28;20057;-69
2023/05/30 00:30:14;;;;;;;57.53;36.28;;;;;;;;;;5016214;28;20026;-67
2023/05/30 00:32:41;;;;;;;49.63;37.03;;;;;;;;;;5014899;28;20065;-67
2023/05/30 00:35:08;;;;;;;68.07;39.20;;;;;;;;;;5016003;28;20030;-67
2023/05/30 00:37:34;;;;;;;50.28;35.90;;;;;;;;;;5014137;28;20025;-68
2023/05/30 00:40:01;;;;;;;53.42;32.97;;;;;;;;;;5013562;28;20411;-71
2023/05/30 00:42:28;;;;;;;50.83;32.72;;;;;;;;;;5013987;28;20042;-70
2023/05/30 00:44:55;;;;;;;48.63;31.85;;;;;;;;;;5013924;28;20048;-73
2023/05/30 00:47:22;;;;;;;47.28;32.67;;;;;;;;;;5015541;28;20161;-67
2023/05/30 00:49:48;;;;;;;48.40;31.73;;;;;;;;;;5015074;28;20022;-68
2023/05/30 00:52:16;;;;;;;44.55;32.50;;;;;;;;;;5015574;28;20029;-68
2023/05/30 00:54:45;;;;;;;52.15;38.65;;;;;;;;;;5015709;28;20026;-68
2023/05/30 00:57:11;;;;;;;51.70;35.65;;;;;;;;;;5015632;28;20032;-67
2023/05/30 00:59:38;;;;;;;52.22;36.35;;;;;;;;;;5015396;28;20049;-66
2023/05/30 01:02:05;;;;;;;52.80;38.28;;;;;;;;;;5015593;28;20076;-69
2023/05/30 01:04:32;;;;;;;52.75;37.47;;;;;;;;;;5015928;28;20475;-68
2023/05/30 01:06:59;;;;;;;47.60;35.40;;;;;;;;;;5015837;28;20075;-68
2023/05/30 01:09:26;;;;;;;84.70;57.33;;;;;;;;;;5015918;28;20018;-68
2023/05/30 01:12:02;;;;;;;125.90;72.45;;;;;;;;;;5015696;28;20080;-69
2023/05/30 01:14:31;;;;;;;115.03;67.28;;;;;;;;;;5015437;28;20037;-68
2023/05/30 01:17:14;;;;;;;51.20;32.90;;;;;;;;;;5015606;28;20069;-68
2023/05/30 01:20:07;;;;;;;371.65;226.15;;;;;;;;;;5015440;28;20064;-70
2023/05/30 01:22:34;;;;;;;67.10;44.90;;;;;;;;;;5015526;28;20390;-69
2023/05/30 01:25:21;;;;;;;190.85;124.35;;;;;;;;;;5015511;28;20032;-69
2023/05/30 01:28:02;;;;;;;119.28;76.78;;;;;;;;;;5011511;28;20030;-69
2023/05/30 01:30:30;;;;;;;75.40;49.40;;;;;;;;;;5015621;28;20488;-69
2023/05/30 01:32:57;;;;;;;87.72;54.67;;;;;;;;;;5015338;28;20557;-66
2023/05/30 01:35:24;;;;;;;61.33;37.55;;;;;;;;;;5015231;28;20114;-67
2023/05/30 01:37:51;;;;;;;60.92;38.20;;;;;;;;;;5015620;28;20542;-67
2023/05/30 01:40:23;;;;;;;66.25;41.67;;;;;;;;;;5017458;28;20046;-68
2023/05/30 01:42:53;;;;;;;65.45;37.38;;;;;;;;;;5026307;28;20021;-66
2023/05/30 01:45:21;;;;;;;60.38;36.75;;;;;;;;;;5034801;28;20108;-66
2023/05/30 01:47:49;;;;;;;66.10;41.58;;;;;;;;;;5034384;28;20548;-67
2023/05/30 01:50:18;;;;;;;50.17;34.00;;;;;;;;;;5034067;28;20025;-68
2023/05/30 01:52:48;;;;;;;47.95;33.15;;;;;;;;;;5034516;28;20044;-68
2023/05/30 01:55:16;;;;;;;64.70;41.40;;;;;;;;;;5034580;28;20027;-67
2023/05/30 01:57:48;;;;;;;59.65;39.00;;;;;;;;;;5033004;28;20029;-67
2023/05/30 02:00:15;;;;;;;64.57;38.50;;;;;;;;;;5033958;28;20068;-67
2023/05/30 02:02:45;;;;;;;53.80;37.03;;;;;;;;;;5032811;28;20060;-67
2023/05/30 02:05:12;;;;;;;49.53;33.17;;;;;;;;;;5031731;28;20108;-68
2023/05/30 02:07:39;;;;;;;56.17;35.45;;;;;;;;;;5032495;28;20014;-68
2023/05/30 02:10:06;;;;;;;48.92;34.35;;;;;;;;;;5032949;28;20041;-68
2023/05/30 02:12:32;;;;;;;48.17;32.90;;;;;;;;;;5033900;28;20036;-68
2023/05/30 02:14:59;;;;;;;45.33;30.27;;;;;;;;;;5033673;28;20470;-68
2023/05/30 02:17:26;;;;;;;49.00;32.78;;;;;;;;;;5033724;28;20026;-68
2023/05/30 02:19:53;;;;;;;51.92;34.50;;;;;;;;;;5027278;28;20030;-69
2023/05/30 02:22:20;;;;;;;52.58;34.92;;;;;;;;;;5022470;28;20378;-68
2023/05/30 02:24:47;;;;;;;72.13;41.03;;;;;;;;;;5014168;28;20029;-69
2023/05/30 02:27:14;;;;;;;42.90;30.60;;;;;;;;;;5013682;28;20489;-70
2023/05/30 02:29:40;;;;;;;57.40;34.70;;;;;;;;;;5014244;28;20463;-70
2023/05/30 02:32:07;;;;;;;52.35;33.67;;;;;;;;;;5013945;28;20497;-71
2023/05/30 02:34:35;;;;;;;50.42;35.40;;;;;;;;;;5013443;28;20104;-72
2023/05/30 02:37:01;;;;;;;43.10;29.60;;;;;;;;;;5013776;28;20036;-68
2023/05/30 02:39:28;;;;;;;36.25;26.55;;;;;;;;;;5013886;28;20054;-69
2023/05/30 02:41:55;;;;;;;47.95;32.47;;;;;;;;;;5013320;28;20026;-68
2023/05/30 02:44:21;;;;;;;38.65;27.08;;;;;;;;;;5013563;28;20066;-69
2023/05/30 02:46:48;;;;;;;37.15;24.38;;;;;;;;;;5013353;28;20049;-69
2023/05/30 02:49:15;;;;;;;31.40;24.73;;;;;;;;;;5013067;28;20022;-66
2023/05/30 02:51:42;;;;;;;33.92;25.27;;;;;;;;;;5013332;28;20026;-67
2023/05/30 02:54:09;;;;;;;36.00;26.10;;;;;;;;;;5013818;28;20021;-68
2023/05/30 02:56:35;;;;;;;40.72;27.63;;;;;;;;;;5013773;28;20018;-68
2023/05/30 02:59:03;;;;;;;43.17;28.30;;;;;;;;;;5012859;28;20387;-68
2023/05/30 03:01:29;;;;;;;37.75;26.50;;;;;;;;;;5013207;28;20140;-69
2023/05/30 03:03:56;;;;;;;34.47;25.25;;;;;;;;;;5013034;28;20026;-67
2023/05/30 03:06:24;;;;;;;34.53;24.58;;;;;;;;;;5013259;28;20068;-68
2023/05/30 03:08:57;;;;;;;33.83;24.35;;;;;;;;;;5013117;28;20080;-69
2023/05/30 03:11:25;;;;;;;38.20;26.42;;;;;;;;;;5012872;28;20049;-69
2023/05/30 03:13:51;;;;;;;38.88;26.90;;;;;;;;;;5013062;28;20080;-69
2023/05/30 03:16:18;;;;;;;39.92;27.67;;;;;;;;;;5013331;28;20076;-69
2023/05/30 03:18:45;;;;;;;40.17;27.13;;;;;;;;;;5013206;28;20014;-68
2023/05/30 03:21:12;;;;;;;33.05;24.13;;;;;;;;;;5041597;23;20050;-65
2023/05/30 03:23:38;;;;;;;36.85;25.50;;;;;;;;;;5033185;28;20594;-68
2023/05/30 03:26:06;;;;;;;51.38;31.67;;;;;;;;;;5032554;28;20076;-67
2023/05/30 03:28:33;;;;;;;43.28;27.50;;;;;;;;;;5032648;28;20052;-67
2023/05/30 03:31:00;;;;;;;42.28;28.08;;;;;;;;;;5032646;28;20083;-67
2023/05/30 03:33:28;;;;;;;39.00;27.05;;;;;;;;;;5032415;28;20037;-67
2023/05/30 03:35:55;;;;;;;34.55;24.35;;;;;;;;;;5032590;28;20078;-67
2023/05/30 03:38:21;;;;;;;35.00;24.08;;;;;;;;;;5032628;28;20022;-67
2023/05/30 03:40:48;;;;;;;29.08;21.80;;;;;;;;;;5032356;28;20026;-66
2023/05/30 03:43:15;;;;;;;37.40;24.40;;;;;;;;;;5014884;28;20390;-67
2023/05/30 03:45:42;;;;;;;26.70;21.30;;;;;;;;;;5032748;28;20021;-67
2023/05/30 03:48:08;;;;;;;27.02;18.23;;;;;;;;;;5033191;28;20026;-67
2023/05/30 03:50:36;;;;;;;29.73;18.80;;;;;;;;;;5032931;28;20025;-68
2023/05/30 03:53:02;;;;;;;31.42;20.65;;;;;;;;;;5033599;28;20014;-67
2023/05/30 03:55:29;;;;;;;33.30;18.88;;;;;;;;;;5033291;28;20029;-67
2023/05/30 03:57:56;;;;;;;25.85;19.10;;;;;;;;;;5016079;28;20022;-67
2023/05/30 04:00:22;;;;;;;31.13;18.15;;;;;;;;;;5035364;28;20029;-67
2023/05/30 04:02:49;;;;;;;25.52;15.95;;;;;;;;;;5036432;28;20029;-66
2023/05/30 04:05:17;;;;;;;34.42;17.73;;;;;;;;;;5036993;28;20021;-65
2023/05/30 04:07:44;;;;;;;23.70;17.30;;;;;;;;;;5036967;28;20100;-67
2023/05/30 04:10:11;;;;;;;22.52;15.63;;;;;;;;;;5035743;28;20467;-67
2023/05/30 04:12:37;;;;;;;23.33;17.67;;;;;;;;;;5023782;28;20022;-65
2023/05/30 04:15:04;;;;;;;30.60;16.52;;;;;;;;;;5035792;28;20025;-65
2023/05/30 04:17:31;;;;;;;25.17;14.85;;;;;;;;;;5035550;28;20026;-65
2023/05/30 04:19:58;;;;;;;21.13;12.80;;;;;;;;;;5035791;28;20433;-65
2023/05/30 04:22:25;;;;;;;20.17;14.25;;;;;;;;;;5035417;28;20511;-65
2023/05/30 04:24:51;;;;;;;22.73;14.95;;;;;;;;;;5035444;28;20036;-66
2023/05/30 04:27:19;;;;;;;23.45;14.00;;;;;;;;;;5035460;28;20033;-65
2023/05/30 04:29:47;;;;;;;20.13;13.35;;;;;;;;;;5035775;28;20105;-66
2023/05/30 04:32:13;;;;;;;19.92;13.95;;;;;;;;;;5035641;28;20014;-67
2023/05/30 04:34:41;;;;;;;23.08;14.20;;;;;;;;;;5035837;28;20029;-66
2023/05/30 04:37:07;;;;;;;21.80;13.77;;;;;;;;;;5035773;28;20410;-65
2023/05/30 04:39:35;;;;;;;24.58;16.02;;;;;;;;;;5035525;28;20471;-67
2023/05/30 04:42:04;;;;;;;18.33;12.38;;;;;;;;;;5035845;28;20059;-65
2023/05/30 04:44:37;;;;;;;22.08;11.75;;;;;;;;;;5035274;28;20060;-69
2023/05/30 04:47:10;;;;;;;16.02;11.25;;;;;;;;;;5026180;28;20387;-68
2023/05/30 04:49:39;;;;;;;21.05;12.50;;;;;;;;;;5035001;28;20026;-67
2023/05/30 04:52:07;;;;;;;23.33;14.15;;;;;;;;;;5035126;28;20430;-67
2023/05/30 04:54:33;;;;;;;36.10;13.20;;;;;;;;;;5034958;28;20025;-66
2023/05/30 04:57:00;;;;;;;24.88;12.27;;;;;;;;;;5035288;28;20064;-67
2023/05/30 04:59:27;;;;;;;21.55;12.57;;;;;;;;;;5035128;28;20026;-67
2023/05/30 05:01:53;;;;;;;22.30;12.15;;;;;;;;;;5035162;28;20482;-69
2023/05/30 05:04:20;;;;;;;19.55;11.63;;;;;;;;;;5034978;28;20056;-67
2023/05/30 05:06:47;;;;;;;17.33;10.63;;;;;;;;;;5034890;28;20025;-68
2023/05/30 05:09:14;;;;;;;16.48;9.77;;;;;;;;;;5034616;28;20022;-68
2023/05/30 05:11:40;;;;;;;19.42;10.15;;;;;;;;;;5034255;28;20072;-68
2023/05/30 05:14:07;;;;;;;15.23;10.00;;;;;;;;;;5034835;28;20053;-68
2023/05/30 05:16:34;;;;;;;16.15;9.27;;;;;;;;;;5033878;28;20025;-68
2023/05/30 05:19:02;;;;;;;18.80;10.85;;;;;;;;;;5033618;28;20036;-68
2023/05/30 05:21:29;;;;;;;16.20;10.45;;;;;;;;;;5033439;28;20057;-67
2023/05/30 05:23:55;;;;;;;25.35;11.32;;;;;;;;;;5033410;28;20021;-68
2023/05/30 05:26:22;;;;;;;18.83;11.60;;;;;;;;;;5033468;28;20018;-70
2023/05/30 05:28:49;;;;;;;23.70;11.10;;;;;;;;;;5033503;28;20026;-66
2023/05/30 05:31:15;;;;;;;19.90;11.45;;;;;;;;;;5033329;28;20425;-74
2023/05/30 05:33:42;;;;;;;21.15;12.25;;;;;;;;;;5033386;28;20021;-68
2023/05/30 05:36:10;;;;;;;16.90;10.75;;;;;;;;;;5032621;28;20047;-68
2023/05/30 05:38:37;;;;;;;19.15;11.85;;;;;;;;;;5032136;28;20025;-68
2023/05/30 05:41:04;;;;;;;17.67;12.13;;;;;;;;;;5032430;28;20045;-67
2023/05/30 05:43:31;;;;;;;22.48;12.60;;;;;;;;;;5032356;28;20437;-68
2023/05/30 05:45:57;;;;;;;18.30;12.00;;;;;;;;;;5032221;28;20048;-70
2023/05/30 05:48:25;;;;;;;26.50;12.65;;;;;;;;;;5032262;28;20470;-68
2023/05/30 05:50:51;;;;;;;20.25;12.63;;;;;;;;;;5032133;28;20040;-71
2023/05/30 05:53:18;;;;;;;21.50;12.02;;;;;;;;;;5031893;28;20049;-70
2023/05/30 05:55:45;;;;;;;17.80;11.73;;;;;;;;;;5032986;28;20028;-69
2023/05/30 05:58:13;;;;;;;21.52;12.40;;;;;;;;;;5033057;28;20104;-73
2023/05/30 06:00:39;;;;;;;19.50;12.02;;;;;;;;;;5032880;28;20059;-70
2023/05/30 06:03:06;;;;;;;20.38;13.20;;;;;;;;;;5030266;28;20021;-68
2023/05/30 06:05:33;;;;;;;16.73;10.98;;;;;;;;;;5032806;28;20382;-70
2023/05/30 06:08:00;;;;;;;17.52;11.18;;;;;;;;;;5030862;28;20532;-70
2023/05/30 06:10:27;;;;;;;43.70;32.88;;;;;;;;;;5030577;28;20536;-69
2023/05/30 06:12:55;;;;;;;26.38;15.60;;;;;;;;;;5033365;28;20099;-69
2023/05/30 06:15:21;;;;;;;15.43;11.57;;;;;;;;;;5032302;28;20033;-68
2023/05/30 06:17:48;;;;;;;20.15;13.70;;;;;;;;;;5032517;28;20025;-71
2023/05/30 06:20:15;;;;;;;19.40;13.10;;;;;;;;;;5031306;28;20375;-69
2023/05/30 06:22:41;;;;;;;17.63;12.43;;;;;;;;;;5030791;28;20029;-70
2023/05/30 06:25:08;;;;;;;20.42;13.02;;;;;;;;;;5031832;28;20036;-72
2023/05/30 06:27:35;;;;;;;70.32;54.33;;;;;;;;;;5031915;28;20049;-71
2023/05/30 06:30:02;;;;;;;41.65;32.53;;;;;;;;;;5031740;28;20020;-69
2023/05/30 06:32:29;;;;;;;35.60;25.05;;;;;;;;;;5032390;28;20025;-73
2023/05/30 06:34:55;;;;;;;37.15;21.20;;;;;;;;;;5032172;28;20029;-71
2023/05/30 06:37:22;;;;;;;29.33;17.13;;;;;;;;;;5032251;28;20077;-72
2023/05/30 06:39:49;;;;;;;32.53;18.85;;;;;;;;;;5032171;28;20029;-71
2023/05/30 06:42:16;;;;;;;30.30;16.38;;;;;;;;;;5032305;28;20520;-70
2023/05/30 06:44:42;;;;;;;21.83;12.32;;;;;;;;;;5032166;28;20022;-72
2023/05/30 06:47:09;;;;;;;19.20;12.88;;;;;;;;;;5032126;28;20021;-67
2023/05/30 06:49:36;;;;;;;19.83;12.05;;;;;;;;;;5032363;28;20493;-67
2023/05/30 06:52:03;;;;;;;21.30;10.48;;;;;;;;;;5032159;28;20036;-67
2023/05/30 06:54:30;;;;;;;13.73;9.30;;;;;;;;;;5032131;28;20029;-66
2023/05/30 06:57:02;;;;;;;79.43;50.00;;;;;;;;;;5032327;28;20026;-67
2023/05/30 06:59:29;;;;;;;84.30;49.75;;;;;;;;;;5029772;28;20037;-68
2023/05/30 07:01:56;;;;;;;60.63;33.60;;;;;;;;;;5032193;28;20116;-68
2023/05/30 07:04:23;;;;;;;27.83;15.05;;;;;;;;;;5032069;28;20479;-68
2023/05/30 07:06:50;;;;;;;40.60;21.17;;;;;;;;;;5032039;28;20364;-68
2023/05/30 07:09:17;;;;;;;15.85;7.25;;;;;;;;;;5031033;28;20025;-68
2023/05/30 07:11:43;;;;;;;12.30;6.18;;;;;;;;;;5031542;28;20049;-67
2023/05/30 07:14:11;;;;;;;19.67;9.50;;;;;;;;;;5031670;28;20024;-67
2023/05/30 07:16:38;;;;;;;22.25;11.68;;;;;;;;;;5031503;28;20044;-68
2023/05/30 07:19:05;;;;;;;23.65;16.00;;;;;;;;;;5031513;28;20019;-67
2023/05/30 07:21:32;;;;;;;68.28;48.92;;;;;;;;;;5031428;28;20041;-68
2023/05/30 07:23:58;;;;;;;65.15;46.17;;;;;;;;;;5031334;28;20017;-67
2023/05/30 07:26:25;;;;;;;41.13;25.48;;;;;;;;;;5031402;28;20022;-68
2023/05/30 07:28:52;;;;;;;17.88;11.30;;;;;;;;;;5031811;28;20018;-68
2023/05/30 07:31:19;;;;;;;35.15;18.95;;;;;;;;;;5031770;28;20017;-66
2023/05/30 07:33:46;;;;;;;30.30;15.75;;;;;;;;;;5032562;28;20378;-68
2023/05/30 07:36:12;;;;;;;31.55;18.02;;;;;;;;;;5035280;28;20032;-68
2023/05/30 07:38:39;;;;;;;35.72;20.35;;;;;;;;;;5034944;28;20401;-71
2023/05/30 07:41:06;;;;;;;32.13;19.77;;;;;;;;;;5035208;28;20022;-68
2023/05/30 07:43:33;;;;;;;26.77;16.08;;;;;;;;;;5035220;28;20025;-71
2023/05/30 07:45:59;;;;;;;26.10;16.02;;;;;;;;;;5034248;28;20040;-66
2023/05/30 07:48:26;;;;;;;32.92;17.98;;;;;;;;;;5034343;28;20531;-68
2023/05/30 07:50:53;;;;;;;29.00;18.48;;;;;;;;;;5034186;28;20068;-69
2023/05/30 07:53:20;;;;;;;28.15;17.10;;;;;;;;;;5033975;28;20028;-70
2023/05/30 07:55:47;;;;;;;33.88;17.58;;;;;;;;;;5031678;28;20022;-69
2023/05/30 07:58:13;;;;;;;33.22;18.25;;;;;;;;;;5033681;28;20567;-67
2023/05/30 08:00:40;;;;;;;26.20;15.60;;;;;;;;;;5033812;28;20380;-66
2023/05/30 08:03:07;;;;;;;23.20;15.52;;;;;;;;;;5033336;28;20017;-69
2023/05/30 08:05:34;;;;;;;25.67;15.82;;;;;;;;;;5035373;28;20084;-68
2023/05/30 08:08:01;;;;;;;31.35;20.13;;;;;;;;;;5035101;28;20028;-70
2023/05/30 08:10:27;;;;;;;38.20;25.52;;;;;;;;;;5034709;28;20013;-73
2023/05/30 08:12:55;;;;;;;32.60;19.83;;;;;;;;;;5035106;28;20100;-69
2023/05/30 08:15:21;;;;;;;28.92;18.60;;;;;;;;;;5034853;28;20698;-65
2023/05/30 08:17:49;;;;;;;21.95;16.00;;;;;;;;;;5015920;28;20060;-68
2023/05/30 08:20:16;;;;;;;27.45;19.55;;;;;;;;;;5015832;28;20045;-69
2023/05/30 08:22:43;;;;;;;34.80;21.58;;;;;;;;;;5015948;28;20026;-69
2023/05/30 08:25:10;;;;;;;32.92;21.45;;;;;;;;;;5015561;28;20038;-69
2023/05/30 08:27:38;;;;;;;34.70;23.58;;;;;;;;;;5015687;28;20030;-69
2023/05/30 08:30:05;;;;;;;37.00;24.23;;;;;;;;;;5015608;28;20026;-68
2023/05/30 08:32:33;;;;;;;41.08;30.15;;;;;;;;;;5015655;28;20056;-68
2023/05/30 08:34:59;;;;;;;41.45;25.88;;;;;;;;;;5015339;28;20036;-69
2023/05/30 08:37:26;;;;;;;38.85;24.08;;;;;;;;;;5015560;28;20030;-69
2023/05/30 08:39:52;;;;;;;36.05;22.92;;;;;;;;;;5015376;28;20712;-69
2023/05/30 08:42:19;;;;;;;43.28;23.88;;;;;;;;;;5015458;28;20029;-69
2023/05/30 08:44:46;;;;;;;35.08;19.65;;;;;;;;;;5015012;28;20467;-69
2023/05/30 08:47:16;;;;;;;24.50;14.75;;;;;;;;;;5014797;28;20037;-69
2023/05/30 08:49:45;;;;;;;20.98;11.70;;;;;;;;;;5015415;28;20068;-69
2023/05/30 08:52:13;;;;;;;27.30;13.05;;;;;;;;;;5015225;28;20022;-69
2023/05/30 08:54:49;;;;;;;42.40;23.70;;;;;;;;;;5015246;28;20052;-69
2023/05/30 08:57:24;;;;;;;35.75;20.83;;;;;;;;;;5015151;28;20491;-68
2023/05/30 08:59:51;;;;;;;19.85;13.32;;;;;;;;;;5015070;28;20467;-68
2023/05/30 09:02:21;;;;;;;22.05;12.13;;;;;;;;;;5015224;28;20022;-69
2023/05/30 09:04:50;;;;;;;18.55;10.32;;;;;;;;;;5015016;28;20030;-69
2023/05/30 09:07:17;;;;;;;25.23;14.05;;;;;;;;;;5015133;28;20056;-68
2023/05/30 09:09:44;;;;;;;17.10;11.32;;;;;;;;;;5015080;28;20022;-68
2023/05/30 09:12:10;;;;;;;16.58;10.25;;;;;;;;;;5014934;28;20041;-68
2023/05/30 09:14:37;;;;;;;17.13;11.27;;;;;;;;;;5014975;28;20053;-68
2023/05/30 09:17:04;;;;;;;32.35;19.58;;;;;;;;;;5015010;28;20017;-67
2023/05/30 09:19:31;;;;;;;42.22;23.95;;;;;;;;;;5014858;28;20467;-68
2023/05/30 09:21:57;;;;;;;28.55;16.00;;;;;;;;;;5014562;28;20061;-68
2023/05/30 09:24:24;;;;;;;19.98;12.55;;;;;;;;;;5014729;28;20026;-68
2023/05/30 09:27:01;;;;;;;25.25;13.70;;;;;;;;;;5019803;28;20018;-67
2023/05/30 09:29:28;;;;;;;22.67;13.90;;;;;;;;;;5026953;28;20073;-66
2023/05/30 09:31:56;;;;;;;26.95;17.02;;;;;;;;;;5026778;28;20021;-67
2023/05/30 09:34:23;;;;;;;48.47;30.48;;;;;;;;;;5014365;28;20038;-69
2023/05/30 09:36:59;;;;;;;35.42;24.27;;;;;;;;;;5014732;28;20030;-68
2023/05/30 09:39:27;;;;;;;30.55;19.33;;;;;;;;;;5014434;28;20026;-69
2023/05/30 09:41:57;;;;;;;28.15;19.08;;;;;;;;;;5013996;28;20444;-68
2023/05/30 09:44:24;;;;;;;41.53;20.60;;;;;;;;;;5014100;28;20045;-69
2023/05/30 09:46:56;;;;;;;39.80;21.92;;;;;;;;;;5014113;28;20033;-68
2023/05/30 09:49:23;;;;;;;33.38;21.08;;;;;;;;;;5014439;28;20033;-68
2023/05/30 09:51:50;;;;;;;39.65;26.77;;;;;;;;;;5014139;28;20026;-68
2023/05/30 09:54:17;;;;;;;52.50;33.20;;;;;;;;;;5014117;28;20025;-68
2023/05/30 09:56:44;;;;;;;58.38;35.75;;;;;;;;;;5014214;28;20064;-66
2023/05/30 09:59:13;;;;;;;64.47;35.00;;;;;;;;;;5014146;28;20030;-67
2023/05/30 10:01:42;;;;;;;60.83;34.00;;;;;;;;;;5013881;28;20099;-69
2023/05/30 10:04:13;;;;;;;50.83;31.63;;;;;;;;;;5013982;28;20395;-69
2023/05/30 10:06:43;;;;;;;40.97;27.10;;;;;;;;;;5014012;28;20053;-68
2023/05/30 10:09:11;;;;;;;48.40;29.77;;;;;;;;;;5013866;28;20030;-68
2023/05/30 10:11:38;;;;;;;45.88;29.20;;;;;;;;;;5014078;28;20014;-68
2023/05/30 10:14:06;;;;;;;44.88;28.58;;;;;;;;;;5014265;28;20022;-68
2023/05/30 10:16:36;;;;;;;45.50;29.33;;;;;;;;;;5013812;28;20018;-68
2023/05/30 10:19:04;;;;;;;52.55;31.15;;;;;;;;;;5013811;28;20037;-67
2023/05/30 10:21:33;;;;;;;48.45;29.85;;;;;;;;;;5013774;28;20121;-67
2023/05/30 10:24:02;;;;;;;59.78;37.08;;;;;;;;;;5013541;28;20030;-67
2023/05/30 10:26:31;;;;;;;51.58;34.28;;;;;;;;;;5013866;28;20018;-68
2023/05/30 10:29:01;;;;;;;68.68;42.95;;;;;;;;;;5014044;28;20046;-69
2023/05/30 10:31:28;;;;;;;127.55;78.90;;;;;;;;;;5013613;28;20022;-68
2023/05/30 10:33:56;;;;;;;152.00;98.60;;;;;;;;;;5013824;28;20026;-68
2023/05/30 10:36:23;;;;;;;84.43;53.60;;;;;;;;;;5013520;28;20072;-68
2023/05/30 10:38:57;;;;;;;51.17;32.40;;;;;;;;;;5013549;28;20076;-68
2023/05/30 10:41:24;;;;;;;33.92;23.70;;;;;;;;;;5013622;28;20030;-67
2023/05/30 10:43:54;;;;;;;49.13;26.92;;;;;;;;;;5013346;28;20100;-68
2023/05/30 10:46:27;;;;;;;43.53;28.95;;;;;;;;;;5013431;28;20406;-69
2023/05/30 10:48:53;;;;;;;44.58;28.83;;;;;;;;;;5013454;28;20057;-68
2023/05/30 10:51:20;;;;;;;43.03;27.67;;;;;;;;;;5013319;28;20029;-67
2023/05/30 10:53:48;;;;;;;44.42;28.38;;;;;;;;;;5013640;28;20387;-68
2023/05/30 10:56:34;;;;;;;45.92;28.38;;;;;;;;;;5013674;28;20022;-67
2023/05/30 10:59:02;;;;;;;41.65;31.08;;;;;;;;;;5013591;28;20058;-67
2023/05/30 11:01:30;;;;;;;44.55;29.10;;;;;;;;;;5013481;28;20183;-67
2023/05/30 11:03:57;;;;;;;46.67;30.95;;;;;;;;;;5014980;28;20041;-67
2023/05/30 11:06:27;;;;;;;50.08;30.83;;;;;;;;;;5021895;28;20111;-68
2023/05/30 11:08:54;;;;;;;46.53;31.42;;;;;;;;;;5034366;28;20044;-68
2023/05/30 11:11:21;;;;;;;52.95;35.00;;;;;;;;;;5031709;28;20030;-67
2023/05/30 11:13:50;;;;;;;53.42;35.20;;;;;;;;;;5033953;28;20025;-67
2023/05/30 11:16:26;;;;;;;53.65;36.67;;;;;;;;;;5017458;28;20060;-68
2023/05/30 11:18:53;;;;;;;51.53;33.88;;;;;;;;;;5034827;28;20405;-67
2023/05/30 11:21:41;;;;;;;54.28;31.77;;;;;;;;;;5036934;28;20079;-68
2023/05/30 11:24:09;;;;;;;51.90;31.90;;;;;;;;;;4999828;28;20069;-68
2023/05/30 11:26:55;;;;;;;47.17;28.30;;;;;;;;;;5030819;28;20034;-68
2023/05/30 11:29:30;;;;;;;37.70;24.40;;;;;;;;;;5017035;28;20018;-68
2023/05/30 11:31:57;;;;;;;38.33;25.00;;;;;;;;;;5017412;28;20100;-69
2023/05/30 11:34:23;;;;;;;40.45;27.25;;;;;;;;;;5016983;28;20017;-69
2023/05/30 11:36:50;;;;;;;45.45;28.52;;;;;;;;;;5017012;28;20030;-69
2023/05/30 11:39:20;;;;;;;51.90;29.52;;;;;;;;;;5016828;28;20100;-69
2023/05/30 11:41:48;;;;;;;51.55;31.40;;;;;;;;;;5016667;28;20605;-67
2023/05/30 11:44:15;;;;;;;50.72;29.52;;;;;;;;;;5016895;28;20152;-68
2023/05/30 11:46:42;;;;;;;87.82;60.63;;;;;;;;;;5016714;28;20033;-69
2023/05/30 11:49:09;;;;;;;165.30;118.43;;;;;;;;;;5016928;28;20391;-69
2023/05/30 11:51:39;;;;;;;84.10;60.33;;;;;;;;;;5016701;28;20058;-70
2023/05/30 11:54:09;;;;;;;91.13;64.38;;;;;;;;;;5016668;28;20036;-69
2023/05/30 11:56:35;;;;;;;167.70;114.82;;;;;;;;;;5016462;28;20387;-68
2023/05/30 11:59:02;;;;;;;160.07;104.22;;;;;;;;;;5022033;28;20028;-68
2023/05/30 12:01:29;;;;;;;91.55;55.80;;;;;;;;;;5023440;28;20090;-68
2023/05/30 12:03:56;;;;;;;79.30;48.65;;;;;;;;;;5030933;28;20379;-69
2023/05/30 12:06:23;;;;;;;78.10;47.97;;;;;;;;;;5016282;28;20029;-68
2023/05/30 12:08:51;;;;;;;70.95;44.13;;;;;;;;;;5020867;28;20479;-69
2023/05/30 12:11:18;;;;;;;72.22;41.92;;;;;;;;;;5035883;28;20076;-68
2023/05/30 12:13:45;;;;;;;69.53;40.08;;;;;;;;;;5036100;28;20024;-69
2023/05/30 12:16:11;;;;;;;75.38;45.22;;;;;;;;;;5036371;28;20504;-69
2023/05/30 12:18:39;;;;;;;102.30;67.95;;;;;;;;;;5035803;28;20021;-69
2023/05/30 12:21:06;;;;;;;85.93;52.90;;;;;;;;;;5034660;28;20302;-69
2023/05/30 12:23:33;;;;;;;132.95;85.47;;;;;;;;;;5035592;28;20390;-72
2023/05/30 12:26:00;;;;;;;98.60;64.70;;;;;;;;;;5035750;28;20470;-68
2023/05/30 12:28:26;;;;;;;108.45;71.85;;;;;;;;;;5035831;28;20418;-67
2023/05/30 12:30:54;;;;;;;250.50;173.85;;;;;;;;;;5032509;28;20020;-67
2023/05/30 12:33:24;;;;;;;126.80;84.10;;;;;;;;;;5034999;28;20486;-69
2023/05/30 12:35:53;;;;;;;116.95;77.18;;;;;;;;;;5034901;28;20554;-67
2023/05/30 12:38:21;;;;;;;88.28;62.55;;;;;;;;;;5035257;28;20382;-69
2023/05/30 12:40:49;;;;;;;82.05;55.25;;;;;;;;;;5034777;28;20445;-68
2023/05/30 12:43:16;;;;;;;94.95;59.28;;;;;;;;;;5032652;28;20224;-69
2023/05/30 12:45:45;;;;;;;53.55;34.13;;;;;;;;;;5034685;28;20025;-68
2023/05/30 12:48:14;;;;;;;59.00;37.53;;;;;;;;;;5034394;28;20047;-68
2023/05/30 12:50:41;;;;;;;60.03;38.00;;;;;;;;;;5035179;28;20474;-68
2023/05/30 12:53:07;;;;;;;54.90;35.80;;;;;;;;;;5034961;28;20104;-67
2023/05/30 12:55:34;;;;;;;71.93;41.30;;;;;;;;;;5035156;28;20028;-66
2023/05/30 12:58:01;;;;;;;68.30;41.75;;;;;;;;;;5035277;28;20026;-67
2023/05/30 13:00:28;;;;;;;85.90;52.53;;;;;;;;;;5035253;28;20033;-68
2023/05/30 13:02:55;;;;;;;94.60;58.72;;;;;;;;;;5035232;28;20378;-68
2023/05/30 13:05:21;;;;;;;71.80;45.60;;;;;;;;;;5035075;28;20032;-69
2023/05/30 13:07:48;;;;;;;105.15;65.65;;;;;;;;;;5033950;28;20044;-69
2023/05/30 13:10:15;;;;;;;129.27;75.40;;;;;;;;;;5029264;28;20021;-68
2023/05/30 13:12:42;;;;;;;86.93;50.38;;;;;;;;;;5033254;28;20026;-69
2023/05/30 13:15:09;;;;;;;54.60;37.15;;;;;;;;;;5032864;28;20017;-69
2023/05/30 13:17:35;;;;;;;46.10;32.25;;;;;;;;;;5032770;28;20021;-68
2023/05/30 13:20:04;;;;;;;54.53;33.15;;;;;;;;;;5032981;28;20013;-68
2023/05/30 13:22:32;;;;;;;52.50;34.17;;;;;;;;;;5033493;28;20129;-73
2023/05/30 13:24:59;;;;;;;54.58;34.00;;;;;;;;;;5032794;28;20268;-69
2023/05/30 13:27:25;;;;;;;54.13;36.13;;;;;;;;;;5032835;28;20122;-67
2023/05/30 13:29:52;;;;;;;56.72;36.78;;;;;;;;;;5033112;28;20096;-69
2023/05/30 13:32:19;;;;;;;58.55;37.10;;;;;;;;;;5031801;28;20022;-68
2023/05/30 13:34:46;;;;;;;53.97;35.38;;;;;;;;;;5031718;28;20037;-69
2023/05/30 13:37:12;;;;;;;62.15;37.67;;;;;;;;;;5031746;28;20029;-68
2023/05/30 13:39:40;;;;;;;55.08;35.28;;;;;;;;;;5031923;28;20037;-69
2023/05/30 13:42:07;;;;;;;61.55;36.40;;;;;;;;;;5031002;28;20025;-69
2023/05/30 13:44:33;;;;;;;60.17;38.45;;;;;;;;;;5031874;28;20109;-68
2023/05/30 13:47:00;;;;;;;64.63;41.83;;;;;;;;;;5030993;28;20029;-68
2023/05/30 13:49:32;;;;;;;81.80;48.42;;;;;;;;;;5031164;28;20053;-68
2023/05/30 13:51:59;;;;;;;;;;;;;;;;;;5033600;28;20421;-68
2023/05/30 13:54:25;;;;;;;64.95;46.40;;;;;;;;;;5032960;28;19931;-69
2023/05/30 13:56:53;;;;;;;56.05;38.70;;;;;;;;;;5033046;28;20032;-69
2023/05/30 13:59:20;;;;;;;56.47;38.35;;;;;;;;;;5033701;28;20108;-69
2023/05/30 14:01:48;;;;;;;57.58;39.15;;;;;;;;;;5033373;28;20017;-68
2023/05/30 14:04:15;;;;;;;58.28;41.38;;;;;;;;;;5033261;28;20079;-69
2023/05/30 14:06:42;;;;;;;65.82;46.80;;;;;;;;;;5032991;28;20022;-69
2023/05/30 14:09:09;;;;;;;72.68;52.90;;;;;;;;;;5033470;28;20075;-69
2023/05/30 14:11:36;;;;;;;70.05;50.03;;;;;;;;;;5033656;28;20048;-69
2023/05/30 14:14:05;;;;;;;56.83;39.42;;;;;;;;;;5031602;28;20017;-68
2023/05/30 14:16:32;;;;;;;53.03;37.28;;;;;;;;;;5033298;28;20500;-68
2023/05/30 14:19:03;;;;;;;52.53;36.08;;;;;;;;;;5033441;28;20029;-68